createdAt,value
2019-04-28T00:00:51.069Z,55.20
2019-04-28T00:03:20.770Z,55.30
2019-04-28T00:05:51.347Z,55.70
2019-04-28T00:08:20.822Z,55.90
2019-04-28T00:10:49.635Z,56.20
2019-04-28T00:13:18.479Z,55.90
2019-04-28T00:15:47.188Z,56.70
2019-04-28T00:18:15.969Z,56.40
2019-04-28T00:20:46.239Z,56.70
2019-04-28T00:23:19.595Z,56.40
2019-04-28T00:25:52.763Z,56.50
2019-04-28T00:28:21.399Z,56.70
2019-04-28T00:30:51.624Z,56.60
2019-04-28T00:33:20.314Z,56.50
2019-04-28T00:35:48.938Z,56.50
2019-04-28T00:38:17.628Z,56.70
2019-04-28T00:40:46.223Z,56.80
2019-04-28T00:43:14.953Z,57.10
2019-04-28T00:45:43.554Z,56.80
2019-04-28T00:48:12.295Z,57.10
2019-04-28T00:50:41.342Z,57.10
2019-04-28T00:53:11.675Z,57.40
2019-04-28T00:55:41.669Z,57.40
2019-04-28T00:58:10.896Z,57.30
2019-04-28T01:00:47.371Z,57.70
2019-04-28T01:03:16.042Z,57.60
2019-04-28T01:05:44.807Z,57.80
2019-04-28T01:08:13.532Z,57.90
2019-04-28T01:10:42.170Z,58.30
2019-04-28T01:13:11.680Z,58.40
2019-04-28T01:15:42.175Z,58.70
2019-04-28T01:18:24.634Z,58.60
2019-04-28T01:20:53.397Z,58.80
2019-04-28T01:23:22.313Z,58.80
2019-04-28T01:25:51.058Z,59.00
2019-04-28T01:28:21.288Z,59.00
2019-04-28T01:30:51.631Z,59.00
2019-04-28T01:33:21.986Z,59.00
2019-04-28T01:35:50.673Z,59.30
2019-04-28T01:38:20.444Z,59.50
2019-04-28T01:40:49.964Z,59.30
2019-04-28T01:43:19.613Z,59.60
2019-04-28T01:45:50.110Z,59.60
2019-04-28T01:48:19.865Z,59.70
2019-04-28T01:50:49.979Z,59.70
2019-04-28T01:53:19.927Z,59.70
2019-04-28T01:55:49.488Z,60.00
2019-04-28T01:58:20.448Z,60.00
2019-04-28T02:00:50.404Z,59.70
2019-04-28T02:03:20.581Z,60.00
2019-04-28T02:05:50.163Z,60.00
2019-04-28T02:08:20.298Z,60.40
2019-04-28T02:10:50.174Z,60.60
2019-04-28T02:13:19.881Z,60.80
2019-04-28T02:15:50.100Z,61.10
2019-04-28T02:18:19.957Z,61.10
2019-04-28T02:20:51.180Z,61.30
2019-04-28T02:23:21.588Z,61.50
2019-04-28T02:25:50.181Z,61.60
2019-04-28T02:28:19.795Z,61.60
2019-04-28T02:30:53.263Z,61.60
2019-04-28T02:33:21.017Z,61.50
2019-04-28T02:35:51.084Z,62.00
2019-04-28T02:38:20.995Z,62.00
2019-04-28T02:40:50.432Z,62.30
2019-04-28T02:43:20.901Z,62.50
2019-04-28T02:45:53.045Z,62.70
2019-04-28T02:48:22.120Z,62.80
2019-04-28T02:50:55.260Z,62.90
2019-04-28T02:53:25.538Z,63.20
2019-04-28T02:55:54.157Z,64.00
2019-04-28T02:58:22.775Z,62.80
2019-04-28T03:01:05.014Z,62.90
2019-04-28T03:03:21.762Z,63.10
2019-04-28T03:05:51.256Z,63.20
2019-04-28T03:08:21.409Z,63.20
2019-04-28T03:10:50.877Z,63.10
2019-04-28T03:13:20.872Z,63.40
2019-04-28T03:15:51.531Z,63.30
2019-04-28T03:18:21.455Z,63.10
2019-04-28T03:20:51.533Z,63.00
2019-04-28T03:23:20.903Z,62.70
2019-04-28T03:25:51.362Z,62.70
2019-04-28T03:28:24.621Z,62.90
2019-04-28T03:30:54.942Z,62.80
2019-04-28T03:33:26.467Z,62.80
2019-04-28T03:35:55.356Z,62.90
2019-04-28T03:38:23.944Z,62.70
2019-04-28T03:40:52.622Z,62.60
2019-04-28T03:43:21.456Z,62.60
2019-04-28T03:45:51.827Z,62.50
2019-04-28T03:48:21.125Z,62.50
2019-04-28T03:50:51.400Z,62.60
2019-04-28T03:53:20.767Z,62.70
2019-04-28T03:55:51.280Z,62.80
2019-04-28T03:58:23.766Z,62.40
2019-04-28T04:00:50.836Z,62.50
2019-04-28T04:03:21.019Z,62.30
2019-04-28T04:05:50.840Z,62.10
2019-04-28T04:08:20.864Z,62.20
2019-04-28T04:10:51.562Z,62.20
2019-04-28T04:13:21.830Z,62.20
2019-04-28T04:15:57.758Z,62.20
2019-04-28T04:18:30.730Z,62.10
2019-04-28T04:21:00.621Z,62.30
2019-04-28T04:23:30.867Z,62.50
2019-04-28T04:26:01.405Z,62.20
2019-04-28T04:28:30.418Z,62.10
2019-04-28T04:31:02.439Z,61.80
2019-04-28T04:33:30.976Z,62.10
2019-04-28T04:36:01.538Z,61.80
2019-04-28T04:38:31.369Z,61.70
2019-04-28T04:41:01.550Z,62.00
2019-04-28T04:43:31.199Z,62.00
2019-04-28T04:46:14.262Z,61.70
2019-04-28T04:48:44.116Z,61.70
2019-04-28T04:51:12.984Z,61.00
2019-04-28T04:53:41.836Z,61.10
2019-04-28T04:56:10.651Z,61.00
2019-04-28T04:58:40.706Z,60.80
2019-04-28T05:01:20.513Z,61.10
2019-04-28T05:03:50.754Z,60.60
2019-04-28T05:06:35.271Z,60.20
2019-04-28T05:09:11.851Z,60.00
2019-04-28T05:11:40.484Z,59.70
2019-04-28T05:14:11.548Z,59.80
2019-04-28T05:16:40.036Z,59.40
2019-04-28T05:19:10.197Z,59.30
2019-04-28T05:21:40.237Z,59.10
2019-04-28T05:24:17.481Z,58.90
2019-04-28T05:26:49.104Z,58.60
2019-04-28T05:29:21.823Z,58.30
2019-04-28T05:31:50.370Z,58.00
2019-04-28T05:34:20.522Z,57.70
2019-04-28T05:37:01.850Z,57.40
2019-04-28T05:39:31.461Z,57.10
2019-04-28T05:42:00.821Z,57.00
2019-04-28T05:44:29.936Z,56.50
2019-04-28T05:47:00.001Z,56.30
2019-04-28T05:49:33.116Z,55.90
2019-04-28T05:52:20.031Z,56.00
2019-04-28T05:54:50.334Z,55.30
2019-04-28T05:57:23.442Z,55.20
2019-04-28T05:59:56.425Z,55.00
2019-04-28T06:02:32.859Z,55.00
2019-04-28T06:05:01.456Z,54.60
2019-04-28T06:07:47.276Z,54.60
2019-04-28T06:10:15.987Z,54.30
2019-04-28T06:12:44.745Z,53.80
2019-04-28T06:15:13.608Z,53.50
2019-04-28T06:17:42.195Z,53.50
2019-04-28T06:20:11.782Z,53.10
2019-04-28T06:22:40.503Z,52.90
2019-04-28T06:25:09.306Z,52.40
2019-04-28T06:27:37.927Z,52.60
2019-04-28T06:30:07.027Z,52.00
2019-04-28T06:32:36.205Z,51.70
2019-04-28T06:35:07.128Z,51.40
2019-04-28T06:37:35.802Z,50.90
2019-04-28T06:40:07.587Z,50.80
2019-04-28T06:42:36.265Z,50.00
2019-04-28T06:45:06.982Z,48.60
2019-04-28T06:47:35.657Z,46.70
2019-04-28T06:50:06.386Z,44.60
2019-04-28T06:52:34.986Z,43.00
2019-04-28T06:55:04.635Z,40.00
2019-04-28T06:57:33.290Z,39.40
2019-04-28T07:00:01.966Z,37.70
2019-04-28T07:02:30.668Z,37.20
2019-04-28T07:05:02.299Z,35.80
2019-04-28T07:07:29.535Z,34.40
2019-04-28T07:09:58.152Z,33.00
2019-04-28T07:12:26.839Z,35.50
2019-04-28T07:14:55.425Z,35.50
2019-04-28T07:17:24.134Z,35.90
2019-04-28T07:20:11.035Z,34.30
2019-04-28T07:22:39.748Z,35.60
2019-04-28T07:25:08.401Z,35.00
2019-04-28T07:27:37.115Z,33.80
2019-04-28T07:30:09.377Z,33.70
2019-04-28T07:32:38.081Z,33.80
2019-04-28T07:35:07.019Z,33.10
2019-04-28T07:37:35.626Z,32.30
2019-04-28T07:40:06.801Z,31.90
2019-04-28T07:42:35.427Z,32.50
2019-04-28T07:45:05.873Z,31.20
2019-04-28T07:47:34.664Z,31.30
2019-04-28T07:50:05.169Z,31.50
2019-04-28T07:52:35.414Z,30.40
2019-04-28T07:55:06.270Z,30.00
2019-04-28T07:57:34.977Z,29.40
2019-04-28T08:00:05.182Z,28.00
2019-04-28T08:02:33.855Z,29.60
2019-04-28T08:05:02.550Z,28.10
2019-04-28T08:07:31.216Z,27.30
2019-04-28T08:09:59.821Z,27.40
2019-04-28T08:12:28.424Z,29.10
2019-04-28T08:14:57.073Z,29.30
2019-04-28T08:17:25.662Z,29.50
2019-04-28T08:19:54.341Z,29.80
2019-04-28T08:22:23.069Z,29.20
2019-04-28T08:24:51.654Z,28.70
2019-04-28T08:27:20.427Z,29.10
2019-04-28T08:29:58.278Z,29.20
2019-04-28T08:32:30.445Z,28.30
2019-04-28T08:34:59.073Z,28.10
2019-04-28T08:37:27.709Z,29.00
2019-04-28T08:39:56.278Z,28.30
2019-04-28T08:42:25.030Z,28.20
2019-04-28T08:44:53.631Z,28.40
2019-04-28T08:47:22.406Z,28.00
2019-04-28T08:49:51.071Z,28.20
2019-04-28T08:52:19.756Z,27.70
2019-04-28T08:54:48.543Z,27.80
2019-04-28T08:57:17.261Z,28.10
2019-04-28T08:59:45.882Z,27.70
2019-04-28T09:02:14.530Z,27.20
2019-04-28T09:04:43.184Z,26.90
2019-04-28T09:07:11.781Z,27.00
2019-04-28T09:09:40.382Z,27.00
2019-04-28T09:12:08.996Z,28.30
2019-04-28T09:14:37.605Z,27.60
2019-04-28T09:17:06.334Z,26.70
2019-04-28T09:19:34.945Z,26.60
2019-04-28T09:22:04.298Z,26.40
2019-04-28T09:24:33.014Z,25.80
2019-04-28T09:27:01.690Z,26.60
2019-04-28T09:29:30.307Z,26.70
2019-04-28T09:31:59.056Z,27.40
2019-04-28T09:34:28.697Z,27.40
2019-04-28T09:36:58.503Z,27.20
2019-04-28T09:39:31.266Z,26.80
2019-04-28T09:42:04.596Z,26.40
2019-04-28T09:44:33.157Z,26.40
2019-04-28T09:47:02.111Z,26.30
2019-04-28T09:49:30.700Z,26.70
2019-04-28T09:51:59.330Z,26.10
2019-04-28T09:54:27.901Z,25.00
2019-04-28T09:56:57.263Z,24.90
2019-04-28T09:59:25.964Z,26.00
2019-04-28T10:01:54.594Z,26.60
2019-04-28T10:04:23.333Z,27.20
2019-04-28T10:06:52.265Z,27.10
2019-04-28T10:09:20.949Z,27.70
2019-04-28T10:11:49.632Z,27.20
2019-04-28T10:14:18.239Z,27.30
2019-04-28T10:16:47.146Z,26.70
2019-04-28T10:19:15.858Z,26.30
2019-04-28T10:21:44.647Z,26.80
2019-04-28T10:24:13.226Z,26.40
2019-04-28T10:26:41.901Z,26.40
2019-04-28T10:29:10.633Z,26.60
2019-04-28T10:31:39.321Z,26.40
2019-04-28T10:34:08.090Z,26.30
2019-04-28T10:36:36.702Z,26.70
2019-04-28T10:39:18.743Z,26.50
2019-04-28T10:41:47.589Z,27.20
2019-04-28T10:44:16.662Z,27.50
2019-04-28T10:46:45.389Z,27.40
2019-04-28T10:49:14.058Z,27.70
2019-04-28T10:51:42.806Z,27.60
2019-04-28T10:54:11.476Z,26.70
2019-04-28T10:56:40.074Z,27.20
2019-04-28T10:59:08.901Z,27.30
2019-04-28T11:01:37.695Z,27.10
2019-04-28T11:04:24.340Z,27.20
2019-04-28T11:06:53.383Z,28.50
2019-04-28T11:09:35.889Z,28.20
2019-04-28T11:12:06.465Z,27.60
2019-04-28T11:14:35.210Z,27.00
2019-04-28T11:17:04.204Z,26.90
2019-04-28T11:19:32.843Z,29.20
2019-04-28T11:22:01.422Z,30.70
2019-04-28T11:24:30.040Z,30.20
2019-04-28T11:26:58.781Z,30.10
2019-04-28T11:29:27.511Z,29.80
2019-04-28T11:31:56.193Z,31.50
2019-04-28T11:34:29.290Z,29.70
2019-04-28T11:36:58.009Z,29.90
2019-04-28T11:39:28.240Z,30.10
2019-04-28T11:41:56.883Z,30.20
2019-04-28T11:44:25.495Z,31.90
2019-04-28T11:46:54.234Z,34.70
2019-04-28T11:49:22.826Z,35.50
2019-04-28T11:51:51.599Z,34.40
2019-04-28T11:54:20.308Z,35.60
2019-04-28T11:56:48.975Z,33.90
2019-04-28T11:59:17.705Z,34.90
2019-04-28T12:01:46.452Z,34.70
2019-04-28T12:04:16.685Z,35.60
2019-04-28T12:06:45.264Z,36.50
2019-04-28T12:09:18.362Z,36.60
2019-04-28T12:11:51.282Z,37.10
2019-04-28T12:14:20.887Z,37.50
2019-04-28T12:17:09.569Z,37.60
2019-04-28T12:19:45.991Z,37.40
2019-04-28T12:22:14.727Z,38.10
2019-04-28T12:24:43.322Z,37.30
2019-04-28T12:27:11.946Z,38.00
2019-04-28T12:29:40.763Z,37.80
2019-04-28T12:32:09.482Z,37.80
2019-04-28T12:34:38.193Z,38.40
2019-04-28T12:37:06.943Z,38.60
2019-04-28T12:39:35.683Z,38.60
2019-04-28T12:42:04.417Z,38.30
2019-04-28T12:44:33.188Z,38.60
2019-04-28T12:47:01.880Z,38.20
2019-04-28T12:49:37.782Z,38.20
2019-04-28T12:52:08.171Z,38.30
2019-04-28T12:54:38.555Z,38.60
2019-04-28T12:57:07.243Z,38.40
2019-04-28T12:59:40.026Z,38.10
2019-04-28T13:02:19.695Z,38.00
2019-04-28T13:04:53.102Z,38.20
2019-04-28T13:07:21.759Z,38.50
2019-04-28T13:09:50.507Z,38.10
2019-04-28T13:12:19.141Z,37.50
2019-04-28T13:14:47.822Z,36.90
2019-04-28T13:17:16.435Z,37.10
2019-04-28T13:19:45.022Z,36.70
2019-04-28T13:22:13.688Z,36.80
2019-04-28T13:24:42.439Z,36.80
2019-04-28T13:27:11.143Z,36.70
2019-04-28T13:29:39.701Z,37.10
2019-04-28T13:32:08.402Z,37.30
2019-04-28T13:34:38.953Z,36.80
2019-04-28T13:37:08.002Z,36.90
2019-04-28T13:39:41.340Z,36.50
2019-04-28T13:42:10.050Z,37.00
2019-04-28T13:44:49.772Z,36.30
2019-04-28T13:47:18.445Z,35.70
2019-04-28T13:49:48.863Z,35.80
2019-04-28T13:52:17.537Z,35.00
2019-04-28T13:54:47.859Z,35.20
2019-04-28T13:57:16.672Z,35.50
2019-04-28T13:59:47.213Z,35.60
2019-04-28T14:02:17.546Z,34.90
2019-04-28T14:05:04.083Z,35.20
2019-04-28T14:07:32.842Z,35.20
2019-04-28T14:10:01.371Z,34.70
2019-04-28T14:12:30.113Z,35.10
2019-04-28T14:14:58.726Z,35.20
2019-04-28T14:17:29.355Z,34.30
2019-04-28T14:19:57.906Z,34.60
2019-04-28T14:22:26.553Z,34.80
2019-04-28T14:24:55.236Z,34.90
2019-04-28T14:27:23.856Z,35.10
2019-04-28T14:29:52.407Z,35.50
2019-04-28T14:32:21.220Z,35.30
2019-04-28T14:34:49.872Z,35.50
2019-04-28T14:37:18.613Z,35.80
2019-04-28T14:39:47.258Z,35.60
2019-04-28T14:42:15.865Z,35.90
2019-04-28T14:44:44.702Z,36.00
2019-04-28T14:47:13.381Z,35.80
2019-04-28T14:49:41.989Z,35.50
2019-04-28T14:52:10.673Z,35.10
2019-04-28T14:54:39.298Z,35.80
2019-04-28T14:57:07.891Z,35.40
2019-04-28T14:59:36.526Z,35.80
2019-04-28T15:02:12.913Z,35.40
2019-04-28T15:04:54.875Z,35.10
2019-04-28T15:07:41.527Z,35.70
2019-04-28T15:10:28.210Z,35.80
2019-04-28T15:12:57.642Z,36.00
2019-04-28T15:15:27.387Z,36.20
2019-04-28T15:17:55.931Z,36.20
2019-04-28T15:20:24.577Z,36.40
2019-04-28T15:22:53.158Z,36.50
2019-04-28T15:25:21.754Z,36.20
2019-04-28T15:27:50.397Z,36.60
2019-04-28T15:30:19.370Z,36.00
2019-04-28T15:32:48.009Z,35.30
2019-04-28T15:35:16.729Z,35.30
2019-04-28T15:37:45.635Z,35.20
2019-04-28T15:40:14.427Z,35.60
2019-04-28T15:42:43.069Z,34.90
2019-04-28T15:45:11.903Z,35.40
2019-04-28T15:47:40.508Z,35.40
2019-04-28T15:50:09.539Z,34.40
2019-04-28T15:52:38.134Z,34.90
2019-04-28T15:55:09.438Z,35.20
2019-04-28T15:57:38.035Z,35.30
2019-04-28T16:00:08.936Z,35.80
2019-04-28T16:02:37.601Z,36.10
2019-04-28T16:05:09.950Z,36.40
2019-04-28T16:07:38.610Z,35.10
2019-04-28T16:10:07.835Z,35.50
2019-04-28T16:12:36.473Z,35.80
2019-04-28T16:15:07.514Z,36.20
2019-04-28T16:17:36.196Z,36.50
2019-04-28T16:20:07.736Z,36.00
2019-04-28T16:22:36.532Z,35.50
2019-04-28T16:25:06.663Z,35.40
2019-04-28T16:27:35.418Z,35.20
2019-04-28T16:30:06.231Z,34.60
2019-04-28T16:32:34.955Z,33.80
2019-04-28T16:35:04.068Z,34.00
2019-04-28T16:37:38.969Z,34.40
2019-04-28T16:40:06.606Z,34.10
2019-04-28T16:42:34.404Z,32.90
2019-04-28T16:45:04.115Z,32.90
2019-04-28T16:47:32.717Z,32.70
2019-04-28T16:50:01.323Z,32.50
2019-04-28T16:52:29.939Z,32.80
2019-04-28T16:55:15.260Z,32.90
2019-04-28T16:57:45.785Z,31.90
2019-04-28T17:00:32.761Z,32.90
2019-04-28T17:03:01.394Z,32.60
2019-04-28T17:05:30.067Z,32.20
2019-04-28T17:07:58.664Z,32.60
2019-04-28T17:10:27.263Z,33.00
2019-04-28T17:12:55.928Z,32.50
2019-04-28T17:15:24.751Z,31.80
2019-04-28T17:17:53.511Z,31.40
2019-04-28T17:20:22.178Z,32.10
2019-04-28T17:22:50.815Z,32.20
2019-04-28T17:25:19.526Z,31.50
2019-04-28T17:27:48.096Z,32.30
2019-04-28T17:30:17.141Z,31.70
2019-04-28T17:32:45.867Z,32.10
2019-04-28T17:35:14.900Z,33.00
2019-04-28T17:37:43.615Z,32.80
2019-04-28T17:40:13.723Z,33.00
2019-04-28T17:42:42.862Z,33.60
2019-04-28T17:45:12.148Z,34.10
2019-04-28T17:47:40.920Z,34.00
2019-04-28T17:50:10.913Z,33.40
2019-04-28T17:52:39.448Z,33.50
2019-04-28T17:55:08.399Z,33.20
2019-04-28T17:57:36.975Z,33.60
2019-04-28T18:00:16.661Z,33.80
2019-04-28T18:02:49.489Z,33.40
2019-04-28T18:05:26.096Z,34.10
2019-04-28T18:07:56.696Z,34.40
2019-04-28T18:10:26.052Z,34.40
2019-04-28T18:13:00.532Z,34.20
2019-04-28T18:15:36.391Z,34.40
2019-04-28T18:18:09.863Z,34.40
2019-04-28T18:20:38.554Z,34.50
2019-04-28T18:23:07.169Z,35.10
2019-04-28T18:25:35.829Z,34.50
2019-04-28T18:28:04.607Z,34.50
2019-04-28T18:30:34.931Z,34.70
2019-04-28T18:33:07.689Z,34.40
2019-04-28T18:35:38.018Z,34.20
2019-04-28T18:38:34.027Z,34.40
2019-04-28T18:40:52.343Z,35.20
2019-04-28T18:43:22.583Z,34.80
2019-04-28T18:45:51.263Z,34.50
2019-04-28T18:48:19.871Z,34.80
2019-04-28T18:50:48.578Z,35.50
2019-04-28T18:53:17.310Z,35.40
2019-04-28T18:55:45.873Z,35.30
2019-04-28T18:58:14.482Z,35.90
2019-04-28T19:00:44.804Z,35.30
2019-04-28T19:03:13.542Z,34.80
2019-04-28T19:05:43.914Z,35.40
2019-04-28T19:08:29.238Z,35.50
2019-04-28T19:11:05.353Z,35.70
2019-04-28T19:13:35.706Z,36.60
2019-04-28T19:16:18.065Z,36.30
2019-04-28T19:18:48.357Z,35.80
2019-04-28T19:21:16.998Z,36.10
2019-04-28T19:23:45.675Z,36.20
2019-04-28T19:26:14.267Z,36.10
2019-04-28T19:28:42.897Z,36.70
2019-04-28T19:31:11.564Z,36.10
2019-04-28T19:33:40.149Z,36.20
2019-04-28T19:36:08.815Z,36.60
2019-04-28T19:38:37.407Z,36.90
2019-04-28T19:41:05.986Z,37.10
2019-04-28T19:43:34.717Z,37.20
2019-04-28T19:46:04.968Z,37.10
2019-04-28T19:48:33.558Z,37.90
2019-04-28T19:51:02.212Z,38.50
2019-04-28T19:53:31.970Z,37.90
2019-04-28T19:56:02.302Z,38.60
2019-04-28T19:58:32.618Z,38.30
2019-04-28T20:01:02.847Z,38.90
2019-04-28T20:03:31.442Z,38.60
2019-04-28T20:06:00.074Z,38.60
2019-04-28T20:08:28.849Z,38.70
2019-04-28T20:10:57.434Z,38.80
2019-04-28T20:13:26.034Z,39.00
2019-04-28T20:15:54.641Z,38.70
2019-04-28T20:18:23.305Z,40.00
2019-04-28T20:20:51.990Z,39.90
2019-04-28T20:23:20.641Z,39.80
2019-04-28T20:25:49.309Z,39.80
2019-04-28T20:28:17.988Z,39.50
2019-04-28T20:30:46.775Z,39.50
2019-04-28T20:33:15.363Z,39.30
2019-04-28T20:35:45.697Z,39.70
2019-04-28T20:38:16.040Z,39.90
2019-04-28T20:40:55.679Z,40.20
2019-04-28T20:43:25.878Z,40.40
2019-04-28T20:45:54.526Z,39.80
2019-04-28T20:48:23.197Z,40.60
2019-04-28T20:50:51.806Z,40.80
2019-04-28T20:53:20.400Z,40.70
2019-04-28T20:55:49.080Z,41.30
2019-04-28T20:58:17.668Z,40.80
2019-04-28T21:00:46.375Z,41.40
2019-04-28T21:03:14.990Z,41.20
2019-04-28T21:05:43.646Z,42.10
2019-04-28T21:08:12.307Z,41.70
2019-04-28T21:10:40.930Z,41.90
2019-04-28T21:13:09.530Z,41.90
2019-04-28T21:15:38.409Z,42.30
2019-04-28T21:18:07.170Z,42.50
2019-04-28T21:20:35.805Z,42.20
2019-04-28T21:23:04.415Z,42.60
2019-04-28T21:25:33.078Z,42.70
2019-04-28T21:28:01.802Z,42.60
2019-04-28T21:30:30.510Z,42.90
2019-04-28T21:32:59.124Z,43.20
2019-04-28T21:35:27.757Z,42.90
2019-04-28T21:37:56.337Z,43.20
2019-04-28T21:40:25.626Z,42.80
2019-04-28T21:42:55.828Z,42.60
2019-04-28T21:45:44.493Z,42.90
2019-04-28T21:48:14.810Z,44.00
2019-04-28T21:50:43.396Z,43.30
2019-04-28T21:53:12.119Z,43.80
2019-04-28T21:55:40.817Z,43.10
2019-04-28T21:58:09.429Z,42.80
2019-04-28T22:00:54.097Z,43.10
2019-04-28T22:03:22.803Z,44.00
2019-04-28T22:05:51.664Z,43.90
2019-04-28T22:08:20.366Z,43.20
2019-04-28T22:10:49.035Z,43.10
2019-04-28T22:13:17.700Z,43.70
2019-04-28T22:15:46.366Z,43.60
2019-04-28T22:18:15.056Z,43.70
2019-04-28T22:20:43.785Z,43.50
2019-04-28T22:23:18.751Z,42.80
2019-04-28T22:25:44.349Z,43.00
2019-04-28T22:28:13.062Z,43.20
2019-04-28T22:30:41.688Z,43.20
2019-04-28T22:33:10.396Z,42.80
2019-04-28T22:35:38.975Z,43.60
2019-04-28T22:38:07.585Z,43.10
2019-04-28T22:40:36.315Z,43.40
2019-04-28T22:43:05.209Z,43.10
2019-04-28T22:45:33.838Z,43.40
2019-04-28T22:48:03.226Z,43.30
2019-04-28T22:50:42.870Z,43.30
2019-04-28T22:53:11.812Z,43.40
2019-04-28T22:55:42.163Z,43.30
2019-04-28T22:58:15.284Z,43.70
2019-04-28T23:00:45.677Z,44.00
2019-04-28T23:03:32.857Z,43.80
2019-04-28T23:06:01.564Z,44.30
2019-04-28T23:08:30.234Z,44.50
2019-04-28T23:10:59.009Z,44.00
2019-04-28T23:13:27.777Z,44.50
2019-04-28T23:15:56.566Z,44.50
2019-04-28T23:18:25.319Z,44.60
2019-04-28T23:20:56.421Z,44.80
2019-04-28T23:23:25.254Z,45.30
2019-04-28T23:25:53.864Z,45.80
2019-04-28T23:28:22.491Z,45.20
2019-04-28T23:30:51.116Z,44.80
2019-04-28T23:33:19.787Z,45.10
2019-04-28T23:35:48.417Z,45.00
2019-04-28T23:38:17.082Z,45.00
2019-04-28T23:40:47.946Z,45.40
2019-04-28T23:43:20.980Z,46.20
2019-04-28T23:45:49.703Z,46.10
2019-04-28T23:48:18.332Z,46.00
2019-04-28T23:51:00.626Z,46.40
2019-04-28T23:53:47.323Z,46.80
2019-04-28T23:56:15.958Z,45.80
2019-04-28T23:58:44.643Z,46.80
